Airfield :







YOU CAN JOIN US ON...

 
LOGIN :

Register | Disclaimer

   EN    FR    IT 

 









Legend :    VFR   Marginal VFR   IFR   Intensive IFR   Very Intensive IFR
Visi :
Ceiling :
>= 8 km
>= 3000ft
5 to 8 km
1000 to 3000 ft
1500m to 5 km
500 to 1000 ft
800 to 1500m
200 to 500 ft
< 800m
< 200 ft
Symbols :   Thunderstorms  Fog  Heavy snow  Heavy precipitations  Wind > 20 kt






- Airport Elevation : 357 ft
- IATA code : YSJ


CYSJ - Saint John

CURRENT METAR :
  • 271300Z 24007KT 210V270 15SM FEW250 14/10 A2982 RMK CI1 SLP101 DENSITY ALT 500FT

EXPIRED METARs :
  • 271200Z 26003KT 230V300 15SM FEW250 13/10 A2981 RMK CI1 SLP098
  • 271100Z 28003KT 240V310 15SM SKC 11/10 A2980 RMK SLP095

TAF TAF CYSJ
Valid from the 27 at 12:00 until the 28 at 00:00 UTC


271139Z 2712/2724 28005KT P6SM SKC
BECMG 2712/2714 25010G20KT
BECMG 2716/2718 21015KT
FM272100 21012G22KT P6SM SCT070
PROB30 2721/2724 1SM BR BKN002 RMK NXT FCST BY 271800Z
CZQM FIR / North America



MET'MAP, your aeronautical weather chart ! - Copyright ORBIFLY December 2007 - Disclaimer

ORBIFLY MET'MAP TEAM :

Programming & Development : Alexandra Zaïnal
Concept & original design : Baudouin d'Aumeries
Assistance for programming : Marc-Olivier Méhu
Technical & hardware support : Manuel Goepfert

Contact : metmap@orbifly.com




SOURCES & CREDITS :

   NOAA